Stonehaven, United Kingdom
Current Conditions -  °F | °C
As of 8:50 AM on Saturday 29 Nov 2014 (Local Time) from EGPD Reporting Station
Haze Haze  
Wind Chill: 44°   Ceiling: 400
Heat Index: 48°   Visibility: 1.8mi
Dew Point: 48°   Wind: 10mph
Humidity: 100%   Direction: 140°SE
Pressure: 29.88"   Gusts: NA
Location:  56.96°N, 2.21°W
Report Text: EGPD 290850Z 14009KT 3000 BR BKN004 09/09 Q1012 NOSIG
Loading
Personal Weather Stations






























Interactive Weather Map New forecast layout! Learn more

10-Day Weather Forecast

Advertisements
Track Severe Weather on mobile